sensor_id;sensor_type;location;lat;lon;timestamp;temperature;humidity
49901;DHT22;35789;48.414;12.768;2022-09-09T00:00:00;12.4;99.9
49901;DHT22;35789;48.414;12.768;2022-09-09T00:05:04;12.3;99.9
49901;DHT22;35789;48.414;12.768;2022-09-09T00:10:00;12.3;99.9
49901;DHT22;35789;48.414;12.768;2022-09-09T00:15:01;12.1;99.9
49901;DHT22;35789;48.414;12.768;2022-09-09T00:20:01;12.1;99.9
49901;DHT22;35789;48.414;12.768;2022-09-09T00:25:02;12.2;99.9
49901;DHT22;35789;48.414;12.768;2022-09-09T00:30:01;12.2;99.9
49901;DHT22;35789;48.414;12.768;2022-09-09T00:35:02;12.2;99.9
49901;DHT22;35789;48.414;12.768;2022-09-09T00:40:01;12.1;99.9
49901;DHT22;35789;48.414;12.768;2022-09-09T00:45:01;12.1;99.9
49901;DHT22;35789;48.414;12.768;2022-09-09T00:50:01;12.1;99.9
49901;DHT22;35789;48.414;12.768;2022-09-09T00:55:03;12.0;99.9
49901;DHT22;35789;48.414;12.768;2022-09-09T01:00:15;12.0;99.9
49901;DHT22;35789;48.414;12.768;2022-09-09T01:05:01;12.0;99.9
49901;DHT22;35789;48.414;12.768;2022-09-09T01:10:00;11.9;99.9
49901;DHT22;35789;48.414;12.768;2022-09-09T01:15:03;11.8;99.9
49901;DHT22;35789;48.414;12.768;2022-09-09T01:20:04;11.7;99.9
49901;DHT22;35789;48.414;12.768;2022-09-09T01:25:09;11.7;99.9
49901;DHT22;35789;48.414;12.768;2022-09-09T01:30:00;11.7;99.9
49901;DHT22;35789;48.414;12.768;2022-09-09T01:35:00;11.6;99.9
49901;DHT22;35789;48.414;12.768;2022-09-09T01:40:00;11.7;99.9
49901;DHT22;35789;48.414;12.768;2022-09-09T01:45:00;11.6;99.9
49901;DHT22;35789;48.414;12.768;2022-09-09T01:50:00;11.3;99.9
49901;DHT22;35789;48.414;12.768;2022-09-09T01:55:00;11.3;99.9
49901;DHT22;35789;48.414;12.768;2022-09-09T02:00:02;11.4;99.9
49901;DHT22;35789;48.414;12.768;2022-09-09T02:05:03;11.4;99.9
49901;DHT22;35789;48.414;12.768;2022-09-09T02:10:01;11.4;99.9
49901;DHT22;35789;48.414;12.768;2022-09-09T02:15:02;11.4;99.9
49901;DHT22;35789;48.414;12.768;2022-09-09T02:20:02;11.5;99.9
49901;DHT22;35789;48.414;12.768;2022-09-09T02:25:00;11.5;99.9
49901;DHT22;35789;48.414;12.768;2022-09-09T02:30:00;11.5;99.9
49901;DHT22;35789;48.414;12.768;2022-09-09T02:35:01;11.5;99.9
49901;DHT22;35789;48.414;12.768;2022-09-09T02:40:00;11.7;99.9
49901;DHT22;35789;48.414;12.768;2022-09-09T02:45:00;11.8;99.9
49901;DHT22;35789;48.414;12.768;2022-09-09T02:50:05;11.9;99.9
49901;DHT22;35789;48.414;12.768;2022-09-09T02:55:05;11.9;99.9
49901;DHT22;35789;48.414;12.768;2022-09-09T03:00:00;11.7;99.9
49901;DHT22;35789;48.414;12.768;2022-09-09T03:05:00;11.8;99.9
49901;DHT22;35789;48.414;12.768;2022-09-09T03:10:00;11.8;99.9
49901;DHT22;35789;48.414;12.768;2022-09-09T03:15:00;12.0;99.9
49901;DHT22;35789;48.414;12.768;2022-09-09T03:20:00;12.1;99.9
49901;DHT22;35789;48.414;12.768;2022-09-09T03:25:00;unavailable;unavailable
49901;DHT22;35789;48.414;12.768;2022-09-09T03:30:00;12.2;99.9
49901;DHT22;35789;48.414;12.768;2022-09-09T03:35:00;12.1;99.9
49901;DHT22;35789;48.414;12.768;2022-09-09T03:40:00;12.2;99.9
49901;DHT22;35789;48.414;12.768;2022-09-09T03:45:00;12.2;99.9
49901;DHT22;35789;48.414;12.768;2022-09-09T03:50:00;12.4;99.9
49901;DHT22;35789;48.414;12.768;2022-09-09T03:55:00;12.4;99.9
49901;DHT22;35789;48.414;12.768;2022-09-09T04:00:00;12.4;99.9
49901;DHT22;35789;48.414;12.768;2022-09-09T04:05:00;12.5;99.9
49901;DHT22;35789;48.414;12.768;2022-09-09T04:10:00;12.5;99.9
49901;DHT22;35789;48.414;12.768;2022-09-09T04:15:00;12.5;99.9
49901;DHT22;35789;48.414;12.768;2022-09-09T04:20:00;12.5;99.9
49901;DHT22;35789;48.414;12.768;2022-09-09T04:25:00;12.5;99.9
49901;DHT22;35789;48.414;12.768;2022-09-09T04:30:00;12.5;99.9
49901;DHT22;35789;48.414;12.768;2022-09-09T04:35:00;12.5;99.9
49901;DHT22;35789;48.414;12.768;2022-09-09T04:40:00;12.5;99.9
49901;DHT22;35789;48.414;12.768;2022-09-09T04:45:00;12.6;99.9
49901;DHT22;35789;48.414;12.768;2022-09-09T04:50:00;12.6;99.9
49901;DHT22;35789;48.414;12.768;2022-09-09T04:55:00;12.6;99.9
49901;DHT22;35789;48.414;12.768;2022-09-09T05:00:00;12.7;99.9
49901;DHT22;35789;48.414;12.768;2022-09-09T05:05:00;12.7;99.9
49901;DHT22;35789;48.414;12.768;2022-09-09T05:10:00;12.7;99.9
49901;DHT22;35789;48.414;12.768;2022-09-09T05:15:00;12.8;99.9
49901;DHT22;35789;48.414;12.768;2022-09-09T05:20:00;12.7;99.9
49901;DHT22;35789;48.414;12.768;2022-09-09T05:25:00;12.8;99.9
49901;DHT22;35789;48.414;12.768;2022-09-09T05:30:00;12.8;99.9
49901;DHT22;35789;48.414;12.768;2022-09-09T05:35:00;13.0;99.9
49901;DHT22;35789;48.414;12.768;2022-09-09T05:40:00;13.1;99.9
49901;DHT22;35789;48.414;12.768;2022-09-09T05:45:00;13.3;99.9
49901;DHT22;35789;48.414;12.768;2022-09-09T05:50:00;13.4;99.9
49901;DHT22;35789;48.414;12.768;2022-09-09T05:55:00;13.5;99.9
49901;DHT22;35789;48.414;12.768;2022-09-09T06:00:00;13.6;99.9
49901;DHT22;35789;48.414;12.768;2022-09-09T06:05:00;13.5;99.9
49901;DHT22;35789;48.414;12.768;2022-09-09T06:10:00;13.5;99.9
49901;DHT22;35789;48.414;12.768;2022-09-09T06:15:00;13.6;99.9
49901;DHT22;35789;48.414;12.768;2022-09-09T06:20:00;13.7;99.9
49901;DHT22;35789;48.414;12.768;2022-09-09T06:25:00;13.8;99.9
49901;DHT22;35789;48.414;12.768;2022-09-09T06:30:00;13.9;99.9
49901;DHT22;35789;48.414;12.768;2022-09-09T06:35:00;14.0;99.9
49901;DHT22;35789;48.414;12.768;2022-09-09T06:40:00;14.0;99.9
49901;DHT22;35789;48.414;12.768;2022-09-09T06:45:00;14.3;99.9
49901;DHT22;35789;48.414;12.768;2022-09-09T06:50:00;14.4;99.9
49901;DHT22;35789;48.414;12.768;2022-09-09T06:55:00;14.5;99.9
49901;DHT22;35789;48.414;12.768;2022-09-09T07:00:00;14.5;99.9
49901;DHT22;35789;48.414;12.768;2022-09-09T07:05:00;14.5;99.9
49901;DHT22;35789;48.414;12.768;2022-09-09T07:10:00;14.4;99.9
49901;DHT22;35789;48.414;12.768;2022-09-09T07:15:00;14.5;99.9
49901;DHT22;35789;48.414;12.768;2022-09-09T07:20:00;14.6;99.9
49901;DHT22;35789;48.414;12.768;2022-09-09T07:25:00;14.7;99.9
49901;DHT22;35789;48.414;12.768;2022-09-09T07:30:00;14.9;99.9
49901;DHT22;35789;48.414;12.768;2022-09-09T07:35:00;15.1;99.9
49901;DHT22;35789;48.414;12.768;2022-09-09T07:40:00;15.4;99.9
49901;DHT22;35789;48.414;12.768;2022-09-09T07:45:00;15.5;99.9
49901;DHT22;35789;48.414;12.768;2022-09-09T07:50:00;15.6;99.9
49901;DHT22;35789;48.414;12.768;2022-09-09T07:55:00;15.6;99.9
49901;DHT22;35789;48.414;12.768;2022-09-09T08:00:00;15.5;99.9
49901;DHT22;35789;48.414;12.768;2022-09-09T08:05:00;15.5;99.9
49901;DHT22;35789;48.414;12.768;2022-09-09T08:10:00;15.4;99.9
49901;DHT22;35789;48.414;12.768;2022-09-09T08:15:00;15.4;99.9
49901;DHT22;35789;48.414;12.768;2022-09-09T08:20:00;15.6;99.9
49901;DHT22;35789;48.414;12.768;2022-09-09T08:25:00;15.7;99.9
49901;DHT22;35789;48.414;12.768;2022-09-09T08:30:00;15.8;99.9
49901;DHT22;35789;48.414;12.768;2022-09-09T08:35:00;15.8;99.9
49901;DHT22;35789;48.414;12.768;2022-09-09T08:40:00;15.9;99.9
49901;DHT22;35789;48.414;12.768;2022-09-09T08:45:03;16.0;99.9
49901;DHT22;35789;48.414;12.768;2022-09-09T08:50:02;16.1;99.9
49901;DHT22;35789;48.414;12.768;2022-09-09T08:55:02;16.4;99.9
49901;DHT22;35789;48.414;12.768;2022-09-09T09:00:00;16.6;99.9
49901;DHT22;35789;48.414;12.768;2022-09-09T09:05:05;16.5;99.9
49901;DHT22;35789;48.414;12.768;2022-09-09T09:10:02;16.6;99.9
49901;DHT22;35789;48.414;12.768;2022-09-09T09:15:00;16.6;99.9
49901;DHT22;35789;48.414;12.768;2022-09-09T09:20:00;16.7;99.9
49901;DHT22;35789;48.414;12.768;2022-09-09T09:25:01;16.6;99.9
49901;DHT22;35789;48.414;12.768;2022-09-09T09:30:00;16.5;99.9
49901;DHT22;35789;48.414;12.768;2022-09-09T09:35:00;16.7;99.9
49901;DHT22;35789;48.414;12.768;2022-09-09T09:40:07;16.8;99.9
49901;DHT22;35789;48.414;12.768;2022-09-09T09:45:07;16.9;99.9
49901;DHT22;35789;48.414;12.768;2022-09-09T09:50:01;17.0;99.9
49901;DHT22;35789;48.414;12.768;2022-09-09T09:55:02;17.1;99.9
49901;DHT22;35789;48.414;12.768;2022-09-09T10:00:00;17.0;99.9
49901;DHT22;35789;48.414;12.768;2022-09-09T10:05:01;17.1;99.9
49901;DHT22;35789;48.414;12.768;2022-09-09T10:10:00;17.2;99.9
49901;DHT22;35789;48.414;12.768;2022-09-09T10:15:01;17.2;99.9
49901;DHT22;35789;48.414;12.768;2022-09-09T10:20:04;17.1;99.9
49901;DHT22;35789;48.414;12.768;2022-09-09T10:25:04;17.0;99.9
49901;DHT22;35789;48.414;12.768;2022-09-09T10:30:01;17.0;99.9
49901;DHT22;35789;48.414;12.768;2022-09-09T10:35:02;16.9;99.9
49901;DHT22;35789;48.414;12.768;2022-09-09T10:40:01;16.8;99.9
49901;DHT22;35789;48.414;12.768;2022-09-09T10:45:03;16.8;99.9
49901;DHT22;35789;48.414;12.768;2022-09-09T10:55:01;16.8;99.9
49901;DHT22;35789;48.414;12.768;2022-09-09T11:00:01;16.7;99.9
49901;DHT22;35789;48.414;12.768;2022-09-09T11:05:01;16.7;99.9
49901;DHT22;35789;48.414;12.768;2022-09-09T11:10:01;16.7;99.9
49901;DHT22;35789;48.414;12.768;2022-09-09T11:15:02;16.7;99.9
49901;DHT22;35789;48.414;12.768;2022-09-09T11:20:00;16.7;99.9
49901;DHT22;35789;48.414;12.768;2022-09-09T11:25:01;16.7;99.9
49901;DHT22;35789;48.414;12.768;2022-09-09T11:30:03;16.6;99.9
49901;DHT22;35789;48.414;12.768;2022-09-09T11:35:02;16.5;99.9
49901;DHT22;35789;48.414;12.768;2022-09-09T11:40:07;16.3;99.9
49901;DHT22;35789;48.414;12.768;2022-09-09T11:45:08;16.1;99.9
49901;DHT22;35789;48.414;12.768;2022-09-09T11:55:00;15.9;99.9
49901;DHT22;35789;48.414;12.768;2022-09-09T12:00:00;unavailable;unavailable
49901;DHT22;35789;48.414;12.768;2022-09-09T12:05:00;16.2;99.9
49901;DHT22;35789;48.414;12.768;2022-09-09T12:10:02;16.2;99.9
49901;DHT22;35789;48.414;12.768;2022-09-09T12:15:01;16.2;99.9
49901;DHT22;35789;48.414;12.768;2022-09-09T12:20:00;16.3;99.9
49901;DHT22;35789;48.414;12.768;2022-09-09T12:25:01;16.3;99.9
49901;DHT22;35789;48.414;12.768;2022-09-09T12:30:01;16.3;99.9
49901;DHT22;35789;48.414;12.768;2022-09-09T12:35:00;16.2;99.9
49901;DHT22;35789;48.414;12.768;2022-09-09T12:40:00;16.1;99.9
49901;DHT22;35789;48.414;12.768;2022-09-09T12:45:00;16.1;99.9
49901;DHT22;35789;48.414;12.768;2022-09-09T12:50:00;16.1;99.9
49901;DHT22;35789;48.414;12.768;2022-09-09T12:55:00;16.2;99.9
49901;DHT22;35789;48.414;12.768;2022-09-09T13:00:10;16.3;99.9
49901;DHT22;35789;48.414;12.768;2022-09-09T13:05:05;16.8;99.9
49901;DHT22;35789;48.414;12.768;2022-09-09T13:10:00;17.1;99.9
49901;DHT22;35789;48.414;12.768;2022-09-09T13:15:00;17.1;99.9
49901;DHT22;35789;48.414;12.768;2022-09-09T13:20:00;16.9;99.9
49901;DHT22;35789;48.414;12.768;2022-09-09T13:25:01;16.8;99.9
49901;DHT22;35789;48.414;12.768;2022-09-09T13:30:00;16.8;99.9
49901;DHT22;35789;48.414;12.768;2022-09-09T13:35:00;16.9;99.9
49901;DHT22;35789;48.414;12.768;2022-09-09T13:40:00;17.0;99.9
49901;DHT22;35789;48.414;12.768;2022-09-09T13:45:00;17.1;99.9
49901;DHT22;35789;48.414;12.768;2022-09-09T13:50:09;17.2;99.9
49901;DHT22;35789;48.414;12.768;2022-09-09T13:55:00;17.3;99.9
49901;DHT22;35789;48.414;12.768;2022-09-09T14:00:00;17.4;99.9
49901;DHT22;35789;48.414;12.768;2022-09-09T14:05:00;17.3;99.9
49901;DHT22;35789;48.414;12.768;2022-09-09T14:10:00;17.4;99.9
49901;DHT22;35789;48.414;12.768;2022-09-09T14:15:00;17.6;99.9
49901;DHT22;35789;48.414;12.768;2022-09-09T14:20:00;17.6;99.9
49901;DHT22;35789;48.414;12.768;2022-09-09T14:25:00;17.5;99.9
49901;DHT22;35789;48.414;12.768;2022-09-09T14:30:00;17.6;99.9
49901;DHT22;35789;48.414;12.768;2022-09-09T14:35:00;17.7;99.9
49901;DHT22;35789;48.414;12.768;2022-09-09T14:40:00;17.7;99.9
49901;DHT22;35789;48.414;12.768;2022-09-09T14:45:00;17.6;99.9
49901;DHT22;35789;48.414;12.768;2022-09-09T14:50:00;17.5;99.9
49901;DHT22;35789;48.414;12.768;2022-09-09T14:55:00;17.6;99.9
49901;DHT22;35789;48.414;12.768;2022-09-09T15:00:00;17.8;99.9
49901;DHT22;35789;48.414;12.768;2022-09-09T15:05:00;17.8;99.9
49901;DHT22;35789;48.414;12.768;2022-09-09T15:10:00;17.7;99.9
49901;DHT22;35789;48.414;12.768;2022-09-09T15:15:00;17.5;99.9
49901;DHT22;35789;48.414;12.768;2022-09-09T15:20:00;17.2;99.9
49901;DHT22;35789;48.414;12.768;2022-09-09T15:25:00;17.1;99.9
49901;DHT22;35789;48.414;12.768;2022-09-09T15:30:00;17.0;99.9
49901;DHT22;35789;48.414;12.768;2022-09-09T15:35:00;17.0;99.9
49901;DHT22;35789;48.414;12.768;2022-09-09T15:40:00;17.0;99.9
49901;DHT22;35789;48.414;12.768;2022-09-09T15:45:00;17.0;99.9
49901;DHT22;35789;48.414;12.768;2022-09-09T15:50:00;17.0;99.9
49901;DHT22;35789;48.414;12.768;2022-09-09T15:55:00;17.1;99.9
49901;DHT22;35789;48.414;12.768;2022-09-09T16:00:00;17.1;99.9
49901;DHT22;35789;48.414;12.768;2022-09-09T16:05:00;17.1;99.9
49901;DHT22;35789;48.414;12.768;2022-09-09T16:10:00;17.2;99.9
49901;DHT22;35789;48.414;12.768;2022-09-09T16:15:00;17.4;99.9
49901;DHT22;35789;48.414;12.768;2022-09-09T16:20:00;17.1;99.9
49901;DHT22;35789;48.414;12.768;2022-09-09T16:25:00;17.0;99.9
49901;DHT22;35789;48.414;12.768;2022-09-09T16:30:00;16.9;99.9
49901;DHT22;35789;48.414;12.768;2022-09-09T16:35:00;16.7;99.9
49901;DHT22;35789;48.414;12.768;2022-09-09T16:40:00;16.6;99.9
49901;DHT22;35789;48.414;12.768;2022-09-09T16:45:00;16.7;99.9
49901;DHT22;35789;48.414;12.768;2022-09-09T16:50:00;16.8;99.9
49901;DHT22;35789;48.414;12.768;2022-09-09T16:55:00;17.0;99.9
49901;DHT22;35789;48.414;12.768;2022-09-09T17:00:00;17.0;99.9
49901;DHT22;35789;48.414;12.768;2022-09-09T17:05:00;16.8;99.9
49901;DHT22;35789;48.414;12.768;2022-09-09T17:10:00;16.8;99.9
49901;DHT22;35789;48.414;12.768;2022-09-09T17:15:00;16.7;99.9
49901;DHT22;35789;48.414;12.768;2022-09-09T17:20:00;16.8;99.9
49901;DHT22;35789;48.414;12.768;2022-09-09T17:25:00;16.6;99.9
49901;DHT22;35789;48.414;12.768;2022-09-09T17:30:00;16.4;99.9
49901;DHT22;35789;48.414;12.768;2022-09-09T17:35:00;16.3;99.9
49901;DHT22;35789;48.414;12.768;2022-09-09T17:40:00;16.3;99.9
49901;DHT22;35789;48.414;12.768;2022-09-09T17:45:00;16.2;99.9
49901;DHT22;35789;48.414;12.768;2022-09-09T17:50:00;16.2;99.9
49901;DHT22;35789;48.414;12.768;2022-09-09T17:55:00;16.1;99.9
49901;DHT22;35789;48.414;12.768;2022-09-09T18:00:00;16.0;99.9
49901;DHT22;35789;48.414;12.768;2022-09-09T18:05:00;15.9;99.9
49901;DHT22;35789;48.414;12.768;2022-09-09T18:10:00;15.8;99.9
49901;DHT22;35789;48.414;12.768;2022-09-09T18:15:00;15.7;99.9
49901;DHT22;35789;48.414;12.768;2022-09-09T18:20:00;15.5;99.9
49901;DHT22;35789;48.414;12.768;2022-09-09T18:25:00;15.4;99.9
49901;DHT22;35789;48.414;12.768;2022-09-09T18:30:00;15.4;99.9
49901;DHT22;35789;48.414;12.768;2022-09-09T18:35:00;15.4;99.9
49901;DHT22;35789;48.414;12.768;2022-09-09T18:40:00;15.2;99.9
49901;DHT22;35789;48.414;12.768;2022-09-09T18:45:00;15.2;99.9
49901;DHT22;35789;48.414;12.768;2022-09-09T18:50:00;15.0;99.9
49901;DHT22;35789;48.414;12.768;2022-09-09T18:55:00;15.0;99.9
49901;DHT22;35789;48.414;12.768;2022-09-09T19:00:00;15.0;99.9
49901;DHT22;35789;48.414;12.768;2022-09-09T19:05:00;15.0;99.9
49901;DHT22;35789;48.414;12.768;2022-09-09T19:10:00;14.9;99.9
49901;DHT22;35789;48.414;12.768;2022-09-09T19:15:00;14.9;99.9
49901;DHT22;35789;48.414;12.768;2022-09-09T19:20:00;14.8;99.9
49901;DHT22;35789;48.414;12.768;2022-09-09T19:25:00;14.8;99.9
49901;DHT22;35789;48.414;12.768;2022-09-09T19:30:00;14.8;99.9
49901;DHT22;35789;48.414;12.768;2022-09-09T19:35:00;14.7;99.9
49901;DHT22;35789;48.414;12.768;2022-09-09T19:40:00;14.7;99.9
49901;DHT22;35789;48.414;12.768;2022-09-09T19:45:00;14.7;99.9
49901;DHT22;35789;48.414;12.768;2022-09-09T19:50:00;14.7;99.9
49901;DHT22;35789;48.414;12.768;2022-09-09T19:55:00;14.6;99.9
49901;DHT22;35789;48.414;12.768;2022-09-09T20:00:00;14.5;99.9
49901;DHT22;35789;48.414;12.768;2022-09-09T20:05:00;14.4;99.9
49901;DHT22;35789;48.414;12.768;2022-09-09T20:10:00;14.3;99.9
49901;DHT22;35789;48.414;12.768;2022-09-09T20:15:00;14.1;99.9
49901;DHT22;35789;48.414;12.768;2022-09-09T20:20:00;14.0;99.9
49901;DHT22;35789;48.414;12.768;2022-09-09T20:25:00;14.1;99.9
49901;DHT22;35789;48.414;12.768;2022-09-09T20:30:00;14.1;99.9
49901;DHT22;35789;48.414;12.768;2022-09-09T20:35:00;unavailable;unavailable
49901;DHT22;35789;48.414;12.768;2022-09-09T20:40:00;14.1;99.9
49901;DHT22;35789;48.414;12.768;2022-09-09T20:45:00;14.1;99.9
49901;DHT22;35789;48.414;12.768;2022-09-09T20:50:00;14.2;99.9
49901;DHT22;35789;48.414;12.768;2022-09-09T20:55:00;unavailable;unavailable
49901;DHT22;35789;48.414;12.768;2022-09-09T21:00:00;14.4;99.9
49901;DHT22;35789;48.414;12.768;2022-09-09T21:05:00;14.3;99.9
49901;DHT22;35789;48.414;12.768;2022-09-09T21:10:00;14.3;99.9
49901;DHT22;35789;48.414;12.768;2022-09-09T21:15:00;14.3;99.9
49901;DHT22;35789;48.414;12.768;2022-09-09T21:20:00;14.3;99.9
49901;DHT22;35789;48.414;12.768;2022-09-09T21:25:00;14.3;99.9
49901;DHT22;35789;48.414;12.768;2022-09-09T21:30:00;14.2;99.9
49901;DHT22;35789;48.414;12.768;2022-09-09T21:35:00;14.1;99.9
49901;DHT22;35789;48.414;12.768;2022-09-09T21:40:00;14.1;99.9
49901;DHT22;35789;48.414;12.768;2022-09-09T21:45:00;14.0;99.9
49901;DHT22;35789;48.414;12.768;2022-09-09T21:50:00;14.0;99.9
49901;DHT22;35789;48.414;12.768;2022-09-09T21:55:00;13.9;99.9
49901;DHT22;35789;48.414;12.768;2022-09-09T22:00:00;unavailable;unavailable
49901;DHT22;35789;48.414;12.768;2022-09-09T22:05:00;13.7;99.9
49901;DHT22;35789;48.414;12.768;2022-09-09T22:10:00;13.7;99.9
49901;DHT22;35789;48.414;12.768;2022-09-09T22:15:00;13.7;99.9
49901;DHT22;35789;48.414;12.768;2022-09-09T22:20:00;13.7;99.9
49901;DHT22;35789;48.414;12.768;2022-09-09T22:25:00;13.7;99.9
49901;DHT22;35789;48.414;12.768;2022-09-09T22:30:00;13.6;99.9
49901;DHT22;35789;48.414;12.768;2022-09-09T22:35:00;13.4;99.9
49901;DHT22;35789;48.414;12.768;2022-09-09T22:40:00;13.3;99.9
49901;DHT22;35789;48.414;12.768;2022-09-09T22:45:00;13.0;99.9
49901;DHT22;35789;48.414;12.768;2022-09-09T22:50:00;13.1;99.9
49901;DHT22;35789;48.414;12.768;2022-09-09T22:55:00;12.9;99.9
49901;DHT22;35789;48.414;12.768;2022-09-09T23:00:00;12.8;99.9
49901;DHT22;35789;48.414;12.768;2022-09-09T23:05:00;12.8;99.9
49901;DHT22;35789;48.414;12.768;2022-09-09T23:10:00;12.9;99.9
49901;DHT22;35789;48.414;12.768;2022-09-09T23:15:00;12.9;99.9
49901;DHT22;35789;48.414;12.768;2022-09-09T23:20:00;12.8;99.9
49901;DHT22;35789;48.414;12.768;2022-09-09T23:25:00;12.8;99.9
49901;DHT22;35789;48.414;12.768;2022-09-09T23:30:00;12.8;99.9
49901;DHT22;35789;48.414;12.768;2022-09-09T23:35:00;12.7;99.9
49901;DHT22;35789;48.414;12.768;2022-09-09T23:40:00;12.5;99.9
49901;DHT22;35789;48.414;12.768;2022-09-09T23:45:00;12.5;99.9
49901;DHT22;35789;48.414;12.768;2022-09-09T23:50:00;12.6;99.9
49901;DHT22;35789;48.414;12.768;2022-09-09T23:55:00;12.7;99.9
